createdAt,value
2019-04-22T00:00:17.997Z,18.33
2019-04-22T00:02:51.581Z,20.03
2019-04-22T00:05:41.462Z,18.57
2019-04-22T00:08:10.319Z,14.43
2019-04-22T00:10:48.713Z,19.87
2019-04-22T00:13:18.591Z,20.87
2019-04-22T00:15:42.423Z,19.77
2019-04-22T00:18:28.249Z,19.37
2019-04-22T00:20:54.523Z,22.37
2019-04-22T00:23:21.285Z,16.97
2019-04-22T00:25:56.067Z,20.73
2019-04-22T00:28:25.023Z,17.90
2019-04-22T00:30:57.551Z,18.03
2019-04-22T00:33:24.472Z,26.33
2019-04-22T00:35:55.170Z,20.67
2019-04-22T00:38:33.844Z,21.10
2019-04-22T00:41:00.812Z,25.70
2019-04-22T00:43:35.965Z,19.20
2019-04-22T00:46:02.735Z,15.27
2019-04-22T00:48:38.596Z,21.80
2019-04-22T00:51:05.799Z,17.33
2019-04-22T00:53:36.032Z,19.60
2019-04-22T00:56:13.804Z,18.50
2019-04-22T00:58:41.299Z,20.30
2019-04-22T01:03:50.270Z,25.80
2019-04-22T01:06:17.321Z,21.17
2019-04-22T01:08:53.711Z,15.40
2019-04-22T01:11:23.072Z,23.20
2019-04-22T01:13:49.587Z,16.57
2019-04-22T01:16:23.921Z,18.53
2019-04-22T01:18:49.024Z,18.77
2019-04-22T01:21:28.764Z,21.97
2019-04-22T01:23:52.223Z,17.67
2019-04-22T01:26:21.541Z,20.87
2019-04-22T01:28:50.577Z,17.50
2019-04-22T01:31:17.188Z,17.43
2019-04-22T01:33:49.841Z,21.73
2019-04-22T01:36:32.965Z,18.97
2019-04-22T01:39:02.066Z,20.43
2019-04-22T01:41:48.821Z,17.37
2019-04-22T01:44:27.251Z,22.57
2019-04-22T01:46:45.119Z,19.30
2019-04-22T01:49:15.998Z,19.97
2019-04-22T01:54:26.669Z,17.57
2019-04-22T01:56:47.313Z,24.67
2019-04-22T01:59:11.926Z,22.97
2019-04-22T02:01:53.039Z,18.83
2019-04-22T02:04:30.223Z,20.47
2019-04-22T02:06:50.854Z,18.50
2019-04-22T02:09:31.581Z,21.83
2019-04-22T02:12:00.123Z,17.53
2019-04-22T02:14:27.585Z,22.47
2019-04-22T02:16:55.781Z,21.80
2019-04-22T02:19:30.288Z,19.30
2019-04-22T02:21:56.523Z,22.53
2019-04-22T02:24:33.860Z,20.43
2019-04-22T02:26:54.567Z,21.80
2019-04-22T02:29:37.312Z,21.90
2019-04-22T02:32:12.837Z,20.70
2019-04-22T02:34:40.270Z,20.63
2019-04-22T02:39:43.087Z,19.77
2019-04-22T02:42:10.794Z,30.93
2019-04-22T02:44:42.220Z,24.07
2019-04-22T02:47:15.649Z,25.13
2019-04-22T02:52:19.913Z,21.43
2019-04-22T02:54:49.068Z,24.23
2019-04-22T02:59:57.134Z,28.67
2019-04-22T03:02:23.477Z,23.33
2019-04-22T03:04:43.813Z,23.93
2019-04-22T03:07:16.457Z,30.97
2019-04-22T03:09:52.780Z,25.43
2019-04-22T03:14:56.293Z,21.73
2019-04-22T03:17:38.509Z,24.57
2019-04-22T03:19:59.091Z,27.17
2019-04-22T03:22:21.020Z,22.53
2019-04-22T03:27:21.976Z,24.23
2019-04-22T03:33:06.367Z,21.47
2019-04-22T03:35:30.411Z,33.67
2019-04-22T03:37:48.849Z,22.70
2019-04-22T03:42:52.051Z,28.20
2019-04-22T03:52:47.045Z,23.27
2019-04-22T03:55:49.040Z,21.63
2019-04-22T03:57:49.654Z,23.70
2019-04-22T04:02:54.257Z,23.60
2019-04-22T04:05:33.576Z,22.20
2019-04-22T04:20:36.502Z,22.93
2019-04-22T04:23:07.955Z,20.03
2019-04-22T04:30:31.760Z,19.60
2019-04-22T04:33:29.158Z,23.23
2019-04-22T04:35:54.484Z,22.03
2019-04-22T04:38:19.094Z,23.33
2019-04-22T04:40:46.109Z,21.90
2019-04-22T04:45:45.087Z,17.30
2019-04-22T04:48:26.804Z,24.37
2019-04-22T04:50:47.394Z,23.90
2019-04-22T04:55:57.937Z,23.17
2019-04-22T04:58:36.707Z,21.50
2019-04-22T05:03:32.937Z,25.00
2019-04-22T05:05:54.718Z,21.40
2019-04-22T05:08:39.114Z,24.03
2019-04-22T05:13:23.436Z,20.03
2019-04-22T05:16:14.837Z,23.53
2019-04-22T05:18:35.095Z,19.20
2019-04-22T05:23:30.064Z,23.20
2019-04-22T05:25:57.651Z,18.07
2019-04-22T05:28:23.705Z,22.20
2019-04-22T05:31:05.146Z,19.77
2019-04-22T05:33:32.318Z,22.20
2019-04-22T05:36:01.561Z,19.57
2019-04-22T05:38:37.912Z,17.63
2019-04-22T05:41:02.779Z,19.70
2019-04-22T05:43:34.468Z,18.03
2019-04-22T05:46:05.707Z,27.10
2019-04-22T05:48:41.069Z,18.30
2019-04-22T05:51:04.496Z,19.70
2019-04-22T05:53:37.646Z,20.40
2019-04-22T05:56:15.442Z,17.57
2019-04-22T05:58:39.701Z,21.43
2019-04-22T06:03:46.083Z,16.20
2019-04-22T06:06:15.048Z,17.47
2019-04-22T06:08:48.716Z,16.57
2019-04-22T06:13:46.620Z,15.33
2019-04-22T06:16:26.378Z,16.43
2019-04-22T06:18:58.299Z,16.03
2019-04-22T06:24:08.271Z,14.27
2019-04-22T06:26:40.615Z,12.73
2019-04-22T06:29:01.525Z,12.60
2019-04-22T06:36:37.424Z,17.33
2019-04-22T06:39:10.430Z,13.27
2019-04-22T06:41:45.834Z,14.93
2019-04-22T06:44:10.996Z,19.43
2019-04-22T06:46:43.335Z,15.23
2019-04-22T06:49:11.209Z,16.47
2019-04-22T06:51:37.732Z,18.93
2019-04-22T06:54:14.097Z,18.80
2019-04-22T06:56:42.714Z,17.83
2019-04-22T06:59:14.721Z,13.27
2019-04-22T07:01:50.934Z,14.20
2019-04-22T07:04:14.467Z,15.93
2019-04-22T07:06:49.914Z,14.97
2019-04-22T07:09:31.533Z,17.93
2019-04-22T07:11:50.013Z,14.17
2019-04-22T07:14:16.401Z,9.93
2019-04-22T07:16:54.468Z,12.00
2019-04-22T07:19:21.880Z,13.67
2019-04-22T07:21:50.935Z,17.53
2019-04-22T07:26:57.608Z,12.57
2019-04-22T07:29:29.711Z,17.00
2019-04-22T07:32:01.144Z,15.30
2019-04-22T07:34:33.358Z,14.93
2019-04-22T07:37:10.974Z,11.87
2019-04-22T07:39:35.470Z,11.97
2019-04-22T07:42:10.766Z,12.47
2019-04-22T07:47:13.786Z,10.60
2019-04-22T07:49:41.189Z,17.97
2019-04-22T07:52:03.633Z,11.30
2019-04-22T07:54:42.824Z,15.10
2019-04-22T07:57:16.485Z,9.07
2019-04-22T07:59:40.497Z,12.57
2019-04-22T08:02:12.784Z,9.23
2019-04-22T08:04:56.124Z,11.30
2019-04-22T08:07:18.077Z,8.87
2019-04-22T08:09:51.001Z,10.27
2019-04-22T08:12:16.671Z,9.03
2019-04-22T08:14:45.909Z,8.07
2019-04-22T08:17:53.291Z,10.13
2019-04-22T08:19:50.165Z,8.83
2019-04-22T08:22:24.098Z,8.33
2019-04-22T08:24:58.611Z,10.13
2019-04-22T08:27:25.210Z,9.63
2019-04-22T08:30:07.410Z,10.53
2019-04-22T08:32:28.505Z,9.23
2019-04-22T08:35:00.614Z,9.30
2019-04-22T08:40:09.537Z,11.73
2019-04-22T08:42:43.521Z,14.33
2019-04-22T08:45:09.603Z,12.87
2019-04-22T08:50:07.744Z,13.43
2019-04-22T08:52:38.506Z,10.57
2019-04-22T08:55:14.354Z,9.03
2019-04-22T08:58:03.233Z,11.10
2019-04-22T09:00:07.050Z,7.83
2019-04-22T09:05:22.800Z,8.90
2019-04-22T09:07:47.112Z,8.23
2019-04-22T09:10:17.260Z,10.90
2019-04-22T09:13:01.056Z,11.60
2019-04-22T09:15:20.600Z,12.07
2019-04-22T09:17:47.896Z,8.70
2019-04-22T09:20:23.385Z,12.40
2019-04-22T09:22:53.723Z,8.27
2019-04-22T09:25:16.950Z,8.00
2019-04-22T09:27:51.166Z,14.33
2019-04-22T09:30:27.774Z,6.53
2019-04-22T09:32:55.742Z,6.67
2019-04-22T09:35:25.125Z,6.43
2019-04-22T09:40:22.331Z,17.40
2019-04-22T09:42:56.391Z,9.33
2019-04-22T09:45:43.659Z,9.33
2019-04-22T09:48:00.930Z,8.53
2019-04-22T09:50:38.483Z,8.73
2019-04-22T09:53:02.090Z,15.43
2019-04-22T09:55:37.681Z,7.70
2019-04-22T09:58:07.207Z,11.80
2019-04-22T10:00:45.844Z,11.23
2019-04-22T10:03:16.743Z,8.73
2019-04-22T10:05:52.125Z,16.13
2019-04-22T10:08:24.514Z,12.57
2019-04-22T10:10:51.606Z,9.67
2019-04-22T10:13:18.743Z,12.77
2019-04-22T10:15:48.059Z,10.43
2019-04-22T10:18:17.872Z,6.73
2019-04-22T10:20:54.126Z,15.47
2019-04-22T10:23:25.013Z,14.93
2019-04-22T10:25:59.444Z,8.40
2019-04-22T10:28:35.582Z,12.90
2019-04-22T10:30:53.478Z,8.77
2019-04-22T10:33:22.412Z,9.00
2019-04-22T10:35:32.990Z,11.17
2019-04-22T10:38:03.941Z,10.50
2019-04-22T10:40:34.716Z,10.40
2019-04-22T10:43:07.704Z,10.37
2019-04-22T10:45:37.697Z,10.63
2019-04-22T10:48:08.497Z,11.30
2019-04-22T10:50:43.025Z,18.50
2019-04-22T10:53:13.578Z,8.87
2019-04-22T10:55:45.660Z,8.27
2019-04-22T10:58:16.948Z,8.60
2019-04-22T11:00:47.372Z,8.17
2019-04-22T11:03:18.074Z,7.43
2019-04-22T11:05:48.413Z,8.07
2019-04-22T11:08:27.280Z,6.30
2019-04-22T11:11:04.828Z,8.00
2019-04-22T11:13:22.234Z,7.33
2019-04-22T11:15:52.973Z,7.83
2019-04-22T11:18:23.209Z,12.97
2019-04-22T11:20:53.565Z,7.37
2019-04-22T11:23:22.945Z,13.70
2019-04-22T11:25:52.224Z,8.50
2019-04-22T11:28:21.533Z,10.50
2019-04-22T11:30:52.258Z,9.50
2019-04-22T11:33:22.526Z,8.53
2019-04-22T11:35:52.156Z,6.70
2019-04-22T11:38:22.684Z,9.43
2019-04-22T11:40:54.377Z,13.57
2019-04-22T11:43:24.172Z,10.20
2019-04-22T11:45:55.321Z,16.27
2019-04-22T11:48:24.652Z,8.60
2019-04-22T11:50:53.920Z,9.77
2019-04-22T11:53:24.722Z,10.00
2019-04-22T11:55:55.062Z,6.80
2019-04-22T11:58:24.705Z,6.63
2019-04-22T12:00:55.458Z,9.77
2019-04-22T12:03:27.177Z,9.53
2019-04-22T12:05:57.794Z,7.80
2019-04-22T12:08:27.212Z,6.37
2019-04-22T12:11:00.065Z,12.40
2019-04-22T12:13:28.266Z,5.50
2019-04-22T12:15:58.852Z,17.77
2019-04-22T12:18:29.150Z,8.43
2019-04-22T12:20:59.205Z,6.80
2019-04-22T12:23:29.408Z,11.43
2019-04-22T12:26:04.264Z,9.97
2019-04-22T12:28:31.080Z,4.73
2019-04-22T12:31:01.660Z,11.80
2019-04-22T12:33:31.646Z,6.77
2019-04-22T12:36:02.282Z,6.20
2019-04-22T12:38:31.671Z,7.60
2019-04-22T12:41:05.823Z,4.93
2019-04-22T12:43:33.347Z,9.47
2019-04-22T12:46:02.857Z,5.43
2019-04-22T12:48:32.862Z,8.03
2019-04-22T12:51:02.942Z,12.73
2019-04-22T12:53:33.620Z,7.23
2019-04-22T12:56:03.193Z,5.73
2019-04-22T12:58:33.756Z,9.93
2019-04-22T13:01:03.383Z,7.77
2019-04-22T13:03:34.024Z,6.37
2019-04-22T13:06:05.913Z,6.93
2019-04-22T13:08:35.795Z,9.40
2019-04-22T13:11:11.986Z,12.10
2019-04-22T13:13:36.827Z,14.03
2019-04-22T13:16:07.011Z,13.37
2019-04-22T13:18:42.041Z,7.65
2019-04-22T13:21:08.597Z,6.20
2019-04-22T13:23:39.027Z,6.23
2019-04-22T13:26:08.414Z,13.38
2019-04-22T13:28:38.871Z,6.20
2019-04-22T13:31:09.681Z,6.62
2019-04-22T13:33:39.097Z,5.00
2019-04-22T13:36:08.375Z,5.95
2019-04-22T13:38:39.026Z,13.28
2019-04-22T13:41:21.284Z,7.42
2019-04-22T13:43:39.657Z,4.30
2019-04-22T13:46:10.240Z,5.55
2019-04-22T13:49:13.185Z,6.90
2019-04-22T13:51:52.139Z,6.90
2019-04-22T13:54:42.350Z,11.70
2019-04-22T13:56:30.396Z,5.45
2019-04-22T13:58:55.292Z,7.97
2019-04-22T14:01:20.553Z,6.28
2019-04-22T14:03:54.643Z,6.37
2019-04-22T14:06:25.062Z,6.55
2019-04-22T14:08:55.685Z,7.58
2019-04-22T14:11:34.571Z,4.72
2019-04-22T14:13:56.732Z,6.00
2019-04-22T14:16:27.015Z,7.00
2019-04-22T14:18:57.991Z,7.72
2019-04-22T14:21:27.416Z,6.55
2019-04-22T14:23:56.681Z,4.87
2019-04-22T14:26:27.229Z,8.13
2019-04-22T14:28:59.832Z,8.55
2019-04-22T14:31:30.586Z,9.93
2019-04-22T14:34:04.987Z,6.15
2019-04-22T14:36:31.046Z,6.37
2019-04-22T14:39:01.909Z,4.70
2019-04-22T14:41:49.766Z,11.00
2019-04-22T14:45:07.174Z,9.98
2019-04-22T14:47:05.566Z,6.80
2019-04-22T14:49:31.456Z,5.47
2019-04-22T14:51:56.039Z,11.08
2019-04-22T14:54:24.242Z,6.53
2019-04-22T14:56:40.412Z,4.30
2019-04-22T14:59:11.289Z,4.22
2019-04-22T15:01:41.572Z,3.70
2019-04-22T15:04:10.991Z,4.12
2019-04-22T15:06:43.114Z,8.55
2019-04-22T15:09:12.197Z,10.45
2019-04-22T15:11:50.749Z,4.53
2019-04-22T15:14:12.633Z,5.95
2019-04-22T15:16:49.024Z,8.20
2019-04-22T15:19:25.687Z,7.10
2019-04-22T15:21:56.633Z,5.75
2019-04-22T15:24:27.563Z,9.63
2019-04-22T15:26:58.565Z,4.58
2019-04-22T15:29:29.415Z,7.70
2019-04-22T15:31:59.943Z,9.20
2019-04-22T15:34:30.656Z,13.10
2019-04-22T15:37:00.174Z,3.98
2019-04-22T15:39:29.529Z,6.60
2019-04-22T15:42:11.341Z,4.95
2019-04-22T15:44:30.741Z,5.03
2019-04-22T15:47:00.915Z,9.88
2019-04-22T15:49:31.892Z,4.60
2019-04-22T15:52:02.981Z,5.85
2019-04-22T15:54:33.976Z,5.50
2019-04-22T15:57:04.763Z,4.40
2019-04-22T15:59:52.645Z,5.33
2019-04-22T16:02:08.317Z,7.62
2019-04-22T16:04:38.785Z,4.70
2019-04-22T16:07:08.597Z,9.75
2019-04-22T16:09:39.372Z,9.63
2019-04-22T16:12:18.591Z,15.48
2019-04-22T16:14:45.438Z,11.60
2019-04-22T16:17:10.709Z,3.98
2019-04-22T16:19:41.171Z,5.67
2019-04-22T16:22:17.092Z,8.20
2019-04-22T16:24:56.272Z,5.72
2019-04-22T16:27:27.338Z,10.10
2019-04-22T16:29:57.152Z,3.87
2019-04-22T16:32:27.838Z,3.65
2019-04-22T16:34:58.688Z,5.62
2019-04-22T16:37:28.529Z,4.28
2019-04-22T16:39:58.899Z,6.78
2019-04-22T16:42:37.842Z,5.95
2019-04-22T16:44:59.641Z,8.77
2019-04-22T16:47:28.923Z,9.50
2019-04-22T16:49:59.496Z,7.70
2019-04-22T16:52:30.145Z,3.73
2019-04-22T16:55:00.889Z,9.55
2019-04-22T16:57:30.281Z,5.53
2019-04-22T17:00:00.448Z,8.90
2019-04-22T17:02:41.725Z,7.30
2019-04-22T17:05:18.034Z,6.83
2019-04-22T17:07:48.076Z,4.67
2019-04-22T17:10:17.835Z,4.90
2019-04-22T17:12:56.352Z,11.53
2019-04-22T17:15:20.741Z,6.70
2019-04-22T17:17:51.497Z,8.80
2019-04-22T17:20:21.081Z,5.53
2019-04-22T17:22:51.467Z,4.73
2019-04-22T17:25:22.367Z,6.87
2019-04-22T17:27:52.030Z,4.13
2019-04-22T17:30:22.272Z,8.60
2019-04-22T17:32:52.464Z,5.77
2019-04-22T17:35:22.133Z,6.97
2019-04-22T17:38:03.066Z,7.47
2019-04-22T17:40:40.856Z,4.93
2019-04-22T17:43:28.477Z,8.03
2019-04-22T17:45:56.030Z,7.73
2019-04-22T17:48:30.388Z,4.40
2019-04-22T17:51:14.532Z,5.20
2019-04-22T17:53:42.575Z,6.00
2019-04-22T17:56:09.684Z,8.90
2019-04-22T17:58:43.111Z,4.33
2019-04-22T18:01:10.732Z,5.53
2019-04-22T18:03:28.541Z,6.80
2019-04-22T18:05:58.225Z,9.83
2019-04-22T18:08:44.241Z,3.93
2019-04-22T18:11:24.288Z,6.27
2019-04-22T18:13:44.603Z,8.37
2019-04-22T18:16:18.125Z,6.53
2019-04-22T18:18:47.634Z,12.47
2019-04-22T18:21:15.709Z,4.63
2019-04-22T18:23:36.104Z,7.30
2019-04-22T18:26:17.081Z,4.93
2019-04-22T18:28:55.912Z,6.93
2019-04-22T18:31:15.758Z,3.67
2019-04-22T18:33:47.872Z,5.63
2019-04-22T18:36:21.268Z,4.43
2019-04-22T18:38:58.493Z,14.07
2019-04-22T18:41:23.703Z,2.40
2019-04-22T18:47:10.719Z,4.77
2019-04-22T18:49:38.671Z,7.97
2019-04-22T18:52:19.576Z,6.60
2019-04-22T18:54:53.508Z,5.53
2019-04-22T18:57:25.643Z,4.83
2019-04-22T18:59:43.273Z,7.00
2019-04-22T19:02:14.214Z,3.53
2019-04-22T19:04:53.930Z,5.50
2019-04-22T19:07:44.287Z,5.63
2019-04-22T19:10:09.615Z,8.17
2019-04-22T19:12:47.056Z,4.27
2019-04-22T19:15:09.374Z,11.13
2019-04-22T19:17:46.285Z,3.77
2019-04-22T19:20:16.970Z,5.73
2019-04-22T19:22:43.775Z,8.10
2019-04-22T19:25:05.927Z,5.37
2019-04-22T19:27:42.173Z,7.03
2019-04-22T19:30:16.453Z,7.03
2019-04-22T19:32:45.176Z,8.83
2019-04-22T19:35:14.071Z,4.37
2019-04-22T19:37:44.209Z,5.57
2019-04-22T19:40:30.339Z,8.37
2019-04-22T19:42:58.023Z,4.70
2019-04-22T19:45:16.031Z,6.50
2019-04-22T19:47:59.896Z,3.20
2019-04-22T19:50:22.742Z,12.00
2019-04-22T19:52:50.315Z,4.03
2019-04-22T19:55:23.805Z,7.40
2019-04-22T19:57:52.324Z,6.93
2019-04-22T20:00:37.388Z,9.90
2019-04-22T20:03:37.750Z,7.03
2019-04-22T20:06:18.105Z,6.60
2019-04-22T20:08:50.987Z,8.80
2019-04-22T20:11:22.652Z,3.83
2019-04-22T20:13:51.349Z,4.37
2019-04-22T20:16:08.585Z,5.03
2019-04-22T20:18:56.968Z,8.97
2019-04-22T20:21:24.005Z,5.23
2019-04-22T20:23:45.295Z,7.03
2019-04-22T20:26:17.895Z,6.57
2019-04-22T20:28:55.882Z,6.73
2019-04-22T20:31:26.616Z,4.07
2019-04-22T20:34:03.540Z,7.80
2019-04-22T20:38:58.787Z,6.20
2019-04-22T20:41:24.949Z,5.30
2019-04-22T20:44:08.007Z,5.83
2019-04-22T20:46:31.322Z,4.97
2019-04-22T20:49:04.921Z,6.97
2019-04-22T20:51:48.750Z,8.07
2019-04-22T20:54:08.873Z,8.50
2019-04-22T20:56:33.771Z,5.13
2019-04-22T20:59:08.696Z,6.43
2019-04-22T21:01:41.434Z,14.47
2019-04-22T21:03:57.638Z,5.43
2019-04-22T21:06:36.943Z,6.03
2019-04-22T21:09:12.089Z,5.67
2019-04-22T21:11:40.888Z,8.43
2019-04-22T21:14:12.244Z,6.07
2019-04-22T21:16:43.396Z,7.30
2019-04-22T21:19:21.682Z,3.13
2019-04-22T21:21:54.737Z,9.73
2019-04-22T21:24:19.646Z,10.43
2019-04-22T21:26:43.730Z,6.20
2019-04-22T21:29:15.893Z,4.03
2019-04-22T21:31:51.286Z,8.10
2019-04-22T21:34:22.263Z,4.27
2019-04-22T21:36:57.466Z,8.83
2019-04-22T21:39:23.099Z,12.33
2019-04-22T21:41:56.658Z,8.17
2019-04-22T21:44:26.905Z,3.23
2019-04-22T21:47:08.652Z,5.23
2019-04-22T21:49:35.560Z,9.50
2019-04-22T21:52:01.630Z,4.83
2019-04-22T21:54:31.566Z,5.10
2019-04-22T21:57:26.529Z,8.63
2019-04-22T21:59:38.483Z,10.20
2019-04-22T22:02:12.296Z,7.30
2019-04-22T22:04:38.441Z,5.80
2019-04-22T22:06:59.890Z,7.90
2019-04-22T22:09:43.979Z,4.40
2019-04-22T22:12:14.810Z,5.30
2019-04-22T22:14:46.373Z,5.73
2019-04-22T22:17:18.826Z,7.20
2019-04-22T22:19:48.526Z,3.93
2019-04-22T22:22:40.137Z,3.03
2019-04-22T22:24:50.154Z,4.87
2019-04-22T22:27:19.006Z,7.17
2019-04-22T22:32:27.447Z,10.20
2019-04-22T22:35:00.527Z,6.17
2019-04-22T22:37:15.884Z,4.50
2019-04-22T22:39:44.897Z,3.30
2019-04-22T22:42:10.908Z,11.33
2019-04-22T22:44:44.860Z,4.37
2019-04-22T22:47:34.238Z,6.77
2019-04-22T22:50:03.037Z,12.33
2019-04-22T22:55:03.849Z,6.17
2019-04-22T23:00:04.526Z,3.97
2019-04-22T23:02:36.879Z,6.57
2019-04-22T23:05:09.669Z,2.57
2019-04-22T23:07:40.950Z,3.93
2019-04-22T23:10:14.531Z,8.30
2019-04-22T23:13:00.482Z,7.13
2019-04-22T23:15:12.373Z,6.70
2019-04-22T23:17:26.213Z,4.43
2019-04-22T23:19:56.014Z,3.10
2019-04-22T23:22:35.643Z,8.13
2019-04-22T23:25:24.787Z,5.00
2019-04-22T23:27:52.580Z,11.13
2019-04-22T23:30:25.458Z,2.70
2019-04-22T23:33:07.800Z,8.03
2019-04-22T23:35:36.363Z,5.77
2019-04-22T23:38:07.813Z,11.23
2019-04-22T23:40:42.888Z,8.90
2019-04-22T23:43:26.382Z,3.97
2019-04-22T23:45:51.978Z,5.40
2019-04-22T23:48:14.144Z,5.43
2019-04-22T23:50:57.347Z,9.23
2019-04-22T23:53:45.195Z,3.53
2019-04-22T23:56:01.258Z,8.40
2019-04-22T23:58:49.263Z,6.17
